De Kooy Airfield

EHKD · North Holland, 荷兰

罗盘
风向 的 风向 的 风向 到 风向 330° De Kooy Airfield 3/21
风: 8 kt, 3 beaufort

4 kt

7 kt
改变
0 ft 1.000 2.000 3.000 4.000 5.000
Cloud Cloud
FEW 2.500
Cloud Cloud Cloud Cloud
SCT 3.100
METAR EHKD 242125Z AUTO 33008KT 290V020 9999 FEW025 SCT031 06/02 Q1009 BLU TEMPO SCT015 BKN025

METAR De Kooy Airfield - EHKD/DHR

De Kooy Airfield是,荷兰中的中型机场。 该机场位于纬度52,92340和经度4,78062。 该机场有一条跑道: 3/21. 本场的ICAO机场代码为EHKD。 该机场的IATA代码为DHR。 机场在Amsterdam FIR中。

该航空气象观测是针对De Kooy Airfield在2024年4月24日 23:25, 当地时间进行的。

机场观察

风向为330°,速度为8 kt。 风向在290°和020°之间变化。

可见度为10 km 或者更多。

有几云在2.500 ft的高度 和 疏云,零星散落的云朵在3.100 ft的高度。 没有观察到天花板。

温度为6 °C,阵风为2 °C。 露点为2 °C,相对湿度为76%。 海平面上的气压为1009 hPa (QNH)。

发展趋势

  • 暂时的

    可变方向的风很小或没有。 疏云,零星散落的云朵在1.500 ft的高度 和 碎云在2.500 ft的高度.

白天

今天,太阳从06:21升起,在20:56降落。 这适用于De Kooy Airfield,世界夏令时可能有所不同。 当地时间与世界标准时间之间的时差为+2 小时。 夏令时目前正在进行中。

公司介绍

在这个机场,你可以找到飞行学校。 这个机场上的公司有Vliegles.nl 和 AeroClub Maritime Vliegopleidingen。

体会

在这个机场有飞行课程。 你可以在没有任何经验的情况下预订飞行课程。 在De Kooy Airfield预订最多的飞行课程类型是Cessna flying lesson。 这些课程的价格从€ 269开始。 在这里阅读更多关于Cessna flying lesson的信息。你也可以在这个网站上进行预订。

跑道

Id 标题 侧风 逆风 侧风 %
3/21 034°-214° 7 kt 4 kt 90 %

逆风成分最大的方向会被突出显示,并用于横风计算。 这并不一定意味着这个方向在使用。

乌云

2.500 ft FEW 几云
3.100 ft SCT 疏云,零星散落的云朵
1.500 ft SCT 暂时的 疏云,零星散落的云朵
2.500 ft BKN 暂时的 碎云

温度 & 天气

温度 6 °C
露点 2 °C
相对湿度 76%
风寒 2 °C
Kp-index 0 (0-9)

白天

日出
06:21 (6:24)
中午
13:38
日落
20:56

小工具

你想在你的网站上有一个关于De Kooy Airfield的当前航空天气(METAR)的小部件吗?

显示HTML代码
报告变更